createdAt,value
2017-08-11T00:00:10.242Z,63.88
2017-08-11T00:01:19.142Z,63.65
2017-08-11T00:02:28.046Z,63.95
2017-08-11T00:03:36.943Z,64.17
2017-08-11T00:04:45.852Z,64.36
2017-08-11T00:05:55.081Z,64.36
2017-08-11T00:07:04.303Z,64.43
2017-08-11T00:08:13.219Z,64.04
2017-08-11T00:09:22.115Z,64.36
2017-08-11T00:10:31.021Z,64.33
2017-08-11T00:11:39.927Z,64.14
2017-08-11T00:12:49.154Z,64.23
2017-08-11T00:13:58.054Z,64.23
2017-08-11T00:15:06.961Z,64.33
2017-08-11T00:16:15.867Z,65.01
2017-08-11T00:17:24.767Z,64.92
2017-08-11T00:18:33.724Z,64.92
2017-08-11T00:19:42.622Z,65.11
2017-08-11T00:20:51.525Z,64.82
2017-08-11T00:22:00.421Z,65.11
2017-08-11T00:23:09.335Z,64.92
2017-08-11T00:24:18.253Z,64.92
2017-08-11T00:25:27.160Z,65.11
2017-08-11T00:26:36.057Z,64.82
2017-08-11T00:27:44.962Z,65.11
2017-08-11T00:28:53.868Z,65.3
2017-08-11T00:30:03.085Z,65.4
2017-08-11T00:31:11.987Z,65.11
2017-08-11T00:32:21.212Z,65.4
2017-08-11T00:33:30.113Z,65.2
2017-08-11T00:34:39.365Z,64.92
2017-08-11T00:35:48.271Z,64.82
2017-08-11T00:36:57.179Z,65.4
2017-08-11T00:38:06.403Z,65.11
2017-08-11T00:39:15.313Z,65.17
2017-08-11T00:40:24.214Z,65.3
2017-08-11T00:41:33.139Z,65.47
2017-08-11T00:42:42.078Z,65.11
2017-08-11T00:43:50.978Z,65.5
2017-08-11T00:45:00.206Z,65.59
2017-08-11T00:46:09.114Z,65.56
2017-08-11T00:47:18.336Z,65.75
2017-08-11T00:48:27.570Z,65.37
2017-08-11T00:49:36.468Z,65.47
2017-08-11T00:50:45.376Z,65.85
2017-08-11T00:51:54.275Z,65.66
2017-08-11T00:53:03.183Z,65.47
2017-08-11T00:54:12.395Z,65.47
2017-08-11T00:55:21.245Z,65.47
2017-08-11T00:56:30.413Z,65.47
2017-08-11T00:57:39.272Z,65.75
2017-08-11T00:58:48.124Z,65.37
2017-08-11T00:59:56.981Z,65.47
2017-08-11T01:01:06.146Z,65.66
2017-08-11T01:02:15.313Z,65.66
2017-08-11T01:03:24.172Z,65.66
2017-08-11T01:04:33.346Z,65.95
2017-08-11T01:05:42.201Z,66.24
2017-08-11T01:06:51.051Z,65.75
2017-08-11T01:07:59.902Z,66.05
2017-08-11T01:09:08.750Z,66.24
2017-08-11T01:10:17.609Z,65.95
2017-08-11T01:11:26.462Z,66.05
2017-08-11T01:12:35.628Z,66.44
2017-08-11T01:13:44.478Z,66.14
2017-08-11T01:14:53.322Z,66.24
2017-08-11T01:16:02.498Z,66.24
2017-08-11T01:17:11.344Z,65.95
2017-08-11T01:18:20.196Z,65.85
2017-08-11T01:19:29.049Z,65.92
2017-08-11T01:20:37.900Z,66.44
2017-08-11T01:21:46.746Z,66.14
2017-08-11T01:22:55.598Z,66.14
2017-08-11T01:24:04.445Z,66.02
2017-08-11T01:25:13.308Z,66.05
2017-08-11T01:26:22.167Z,66.11
2017-08-11T01:27:31.013Z,65.95
2017-08-11T01:28:39.865Z,66.11
2017-08-11T01:29:48.717Z,66.05
2017-08-11T01:30:57.567Z,65.95
2017-08-11T01:32:06.418Z,65.85
2017-08-11T01:33:15.270Z,66.14
2017-08-11T01:34:24.449Z,66.11
2017-08-11T01:35:33.300Z,66.3
2017-08-11T01:36:42.155Z,66.79
2017-08-11T01:37:51.005Z,66.4
2017-08-11T01:38:59.855Z,66.6
2017-08-11T01:40:08.709Z,66.6
2017-08-11T01:41:17.557Z,66.2
2017-08-11T01:42:26.409Z,66.5
2017-08-11T01:43:35.264Z,66.69
2017-08-11T01:44:44.112Z,66.4
2017-08-11T01:45:52.960Z,66.5
2017-08-11T01:47:01.821Z,66.4
2017-08-11T01:48:10.675Z,66.2
2017-08-11T01:49:19.521Z,66.6
2017-08-11T01:50:28.371Z,66.4
2017-08-11T01:51:37.537Z,66.5
2017-08-11T01:52:46.709Z,66.5
2017-08-11T01:53:55.560Z,66.6
2017-08-11T01:55:04.416Z,66.3
2017-08-11T01:56:13.266Z,66.4
2017-08-11T01:57:22.118Z,66.69
2017-08-11T01:58:31.289Z,66.4
2017-08-11T01:59:40.140Z,66.4
2017-08-11T02:00:49.003Z,66.79
2017-08-11T02:01:57.852Z,66.5
2017-08-11T02:03:06.709Z,66.89
2017-08-11T02:04:15.880Z,66.5
2017-08-11T02:05:24.729Z,66.6
2017-08-11T02:06:33.579Z,66.4
2017-08-11T02:07:42.746Z,66.3
2017-08-11T02:08:51.593Z,66.89
2017-08-11T02:10:00.447Z,66.69
2017-08-11T02:11:09.301Z,66.69
2017-08-11T02:12:18.152Z,66.5
2017-08-11T02:13:27.003Z,66.79
2017-08-11T02:14:35.850Z,66.69
2017-08-11T02:15:44.703Z,66.89
2017-08-11T02:16:53.549Z,66.6
2017-08-11T02:18:02.394Z,66.5
2017-08-11T02:19:11.253Z,66.79
2017-08-11T02:20:20.418Z,66.89
2017-08-11T02:21:29.304Z,66.69
2017-08-11T02:22:38.471Z,66.99
2017-08-11T02:23:47.328Z,67.08
2017-08-11T02:24:56.190Z,66.6
2017-08-11T02:26:05.042Z,66.79
2017-08-11T02:27:13.889Z,67.08
2017-08-11T02:28:22.744Z,67.24
2017-08-11T02:29:31.588Z,67.08
2017-08-11T02:30:40.435Z,66.79
2017-08-11T02:31:49.286Z,66.89
2017-08-11T02:32:58.146Z,66.85
2017-08-11T02:34:07.009Z,67.08
2017-08-11T02:35:15.861Z,66.99
2017-08-11T02:36:25.350Z,67.08
2017-08-11T02:37:34.210Z,66.89
2017-08-11T02:38:43.064Z,66.89
2017-08-11T02:39:51.919Z,66.79
2017-08-11T02:41:00.771Z,66.79
2017-08-11T02:42:09.942Z,66.75
2017-08-11T02:43:18.814Z,66.79
2017-08-11T02:44:27.671Z,66.99
2017-08-11T02:45:36.519Z,67.27
2017-08-11T02:46:45.371Z,67.57
2017-08-11T02:47:54.224Z,67.44
2017-08-11T02:49:03.396Z,67.18
2017-08-11T02:50:12.253Z,67.47
2017-08-11T02:51:21.099Z,67.44
2017-08-11T02:52:29.954Z,67.24
2017-08-11T02:53:38.802Z,67.27
2017-08-11T02:54:47.653Z,67.27
2017-08-11T02:55:56.499Z,67.24
2017-08-11T02:57:05.351Z,67.24
2017-08-11T02:58:14.198Z,67.05
2017-08-11T02:59:23.042Z,67.37
2017-08-11T03:00:31.917Z,66.95
2017-08-11T03:01:40.780Z,67.34
2017-08-11T03:02:49.632Z,67.14
2017-08-11T03:03:58.801Z,67.14
2017-08-11T03:05:07.645Z,67.14
2017-08-11T03:06:16.504Z,67.24
2017-08-11T03:07:25.353Z,67.05
2017-08-11T03:08:34.206Z,67.05
2017-08-11T03:09:43.373Z,67.18
2017-08-11T03:10:52.223Z,67.05
2017-08-11T03:12:01.075Z,67.14
2017-08-11T03:13:09.923Z,67.66
2017-08-11T03:14:18.771Z,68.02
2017-08-11T03:15:27.627Z,68.12
2017-08-11T03:16:36.480Z,67.72
2017-08-11T03:17:45.336Z,68.12
2017-08-11T03:18:54.180Z,67.34
2017-08-11T03:20:03.027Z,68.02
2017-08-11T03:21:11.880Z,67.82
2017-08-11T03:22:20.738Z,67.82
2017-08-11T03:23:29.597Z,67.92
2017-08-11T03:24:38.444Z,67.72
2017-08-11T03:25:47.304Z,68.02
2017-08-11T03:26:56.159Z,67.92
2017-08-11T03:28:05.013Z,68.02
2017-08-11T03:29:13.867Z,68.02
2017-08-11T03:30:22.741Z,67.63
2017-08-11T03:31:31.598Z,68.12
2017-08-11T03:32:40.444Z,68.02
2017-08-11T03:33:49.297Z,68.02
2017-08-11T03:34:58.470Z,67.82
2017-08-11T03:36:07.323Z,67.63
2017-08-11T03:37:16.166Z,68.12
2017-08-11T03:38:25.015Z,67.92
2017-08-11T03:39:33.866Z,67.92
2017-08-11T03:40:42.726Z,67.82
2017-08-11T03:41:51.896Z,67.72
2017-08-11T03:43:00.758Z,67.82
2017-08-11T03:44:09.606Z,67.72
2017-08-11T03:45:18.453Z,68.02
2017-08-11T03:46:27.306Z,67.82
2017-08-11T03:47:36.157Z,67.63
2017-08-11T03:48:45.010Z,67.63
2017-08-11T03:49:53.858Z,67.82
2017-08-11T03:51:02.713Z,67.92
2017-08-11T03:52:11.568Z,67.72
2017-08-11T03:53:20.415Z,68.02
2017-08-11T03:54:29.264Z,67.82
2017-08-11T03:55:38.120Z,68.4
2017-08-11T03:56:46.973Z,68.4
2017-08-11T03:57:55.825Z,68.12
2017-08-11T03:59:04.996Z,68.3
2017-08-11T04:00:13.843Z,68.12
2017-08-11T04:01:22.694Z,68.4
2017-08-11T04:02:31.543Z,68.3
2017-08-11T04:03:40.400Z,68.02
2017-08-11T04:04:49.247Z,68.27
2017-08-11T04:05:58.104Z,68.3
2017-08-11T04:07:06.962Z,68.3
2017-08-11T04:08:15.813Z,68.3
2017-08-11T04:09:24.661Z,68.47
2017-08-11T04:10:33.536Z,68.47
2017-08-11T04:11:42.389Z,68.18
2017-08-11T04:12:51.252Z,67.92
2017-08-11T04:14:00.097Z,67.98
2017-08-11T04:15:09.269Z,68.56
2017-08-11T04:16:18.121Z,68.56
2017-08-11T04:17:26.979Z,68.08
2017-08-11T04:18:35.828Z,68.37
2017-08-11T04:19:44.674Z,68.37
2017-08-11T04:20:53.849Z,68.37
2017-08-11T04:22:02.721Z,68.37
2017-08-11T04:23:11.590Z,68.56
2017-08-11T04:24:20.434Z,68.56
2017-08-11T04:25:29.289Z,68.27
2017-08-11T04:26:38.455Z,67.98
2017-08-11T04:27:47.306Z,68.27
2017-08-11T04:28:56.162Z,68.66
2017-08-11T04:30:05.006Z,68.47
2017-08-11T04:31:13.861Z,68.37
2017-08-11T04:32:22.705Z,68.27
2017-08-11T04:33:31.552Z,68.21
2017-08-11T04:34:40.409Z,68.37
2017-08-11T04:35:49.262Z,68.37
2017-08-11T04:36:58.109Z,68.18
2017-08-11T04:38:06.962Z,68.27
2017-08-11T04:39:16.133Z,68.5
2017-08-11T04:40:24.978Z,68.37
2017-08-11T04:41:34.152Z,68.47
2017-08-11T04:42:43.009Z,68.27
2017-08-11T04:43:51.859Z,68.66
2017-08-11T04:45:01.022Z,68.27
2017-08-11T04:46:09.878Z,68.47
2017-08-11T04:47:18.728Z,68.47
2017-08-11T04:48:27.583Z,68.27
2017-08-11T04:49:36.446Z,68.37
2017-08-11T04:50:45.304Z,68.47
2017-08-11T04:51:54.154Z,68.56
2017-08-11T04:53:03.002Z,68.47
2017-08-11T04:54:12.171Z,68.56
2017-08-11T04:55:21.032Z,68.27
2017-08-11T04:56:29.881Z,68.18
2017-08-11T04:57:38.724Z,68.76
2017-08-11T04:58:47.578Z,68.66
2017-08-11T04:59:56.428Z,68.27
2017-08-11T05:01:05.281Z,68.47
2017-08-11T05:02:14.131Z,68.66
2017-08-11T05:03:22.984Z,68.95
2017-08-11T05:04:31.841Z,68.66
2017-08-11T05:05:40.690Z,69.15
2017-08-11T05:06:49.546Z,69.15
2017-08-11T05:07:58.710Z,69.05
2017-08-11T05:09:07.879Z,69.05
2017-08-11T05:10:16.725Z,69.05
2017-08-11T05:11:25.573Z,69.15
2017-08-11T05:12:34.426Z,68.85
2017-08-11T05:13:43.283Z,69.15
2017-08-11T05:14:52.132Z,69.15
2017-08-11T05:16:00.979Z,69.05
2017-08-11T05:17:09.827Z,69.34
2017-08-11T05:18:18.678Z,68.95
2017-08-11T05:19:27.870Z,69.05
2017-08-11T05:20:36.723Z,69.24
2017-08-11T05:21:45.572Z,69.05
2017-08-11T05:22:54.752Z,69.24
2017-08-11T05:24:03.597Z,69.15
2017-08-11T05:25:12.445Z,69.05
2017-08-11T05:26:21.301Z,69.24
2017-08-11T05:27:30.150Z,69.15
2017-08-11T05:28:39.317Z,68.85
2017-08-11T05:29:48.169Z,68.85
2017-08-11T05:30:57.020Z,68.85
2017-08-11T05:32:05.873Z,68.76
2017-08-11T05:33:14.726Z,69.34
2017-08-11T05:34:23.586Z,69.15
2017-08-11T05:35:32.445Z,68.95
2017-08-11T05:36:41.300Z,68.95
2017-08-11T05:37:50.142Z,68.66
2017-08-11T05:38:59.011Z,68.95
2017-08-11T05:40:07.861Z,69.05
2017-08-11T05:41:16.708Z,69.05
2017-08-11T05:42:26.192Z,69.05
2017-08-11T05:43:35.046Z,69.15
2017-08-11T05:44:44.204Z,69.05
2017-08-11T05:45:53.060Z,69.15
2017-08-11T05:47:01.912Z,68.76
2017-08-11T05:48:10.762Z,68.76
2017-08-11T05:49:19.615Z,68.85
2017-08-11T05:50:28.469Z,68.95
2017-08-11T05:51:37.313Z,68.95
2017-08-11T05:52:46.167Z,68.95
2017-08-11T05:53:55.019Z,69.05
2017-08-11T05:55:03.869Z,68.85
2017-08-11T05:56:12.723Z,68.76
2017-08-11T05:57:21.964Z,68.95
2017-08-11T05:58:30.813Z,69.05
2017-08-11T05:59:39.664Z,69.15
2017-08-11T06:00:48.514Z,68.76
2017-08-11T06:01:57.372Z,68.95
2017-08-11T06:03:06.225Z,69.05
2017-08-11T06:04:15.091Z,69.15
2017-08-11T06:05:23.934Z,69.05
2017-08-11T06:06:32.828Z,68.95
2017-08-11T06:07:42.004Z,69.15
2017-08-11T06:08:50.856Z,69.05
2017-08-11T06:09:59.701Z,69.34
2017-08-11T06:11:08.553Z,69.15
2017-08-11T06:12:17.403Z,69.24
2017-08-11T06:13:26.253Z,69.34
2017-08-11T06:14:35.106Z,69.53
2017-08-11T06:15:44.277Z,69.43
2017-08-11T06:16:53.131Z,69.34
2017-08-11T06:18:01.987Z,69.05
2017-08-11T06:19:10.836Z,69.15
2017-08-11T06:20:19.690Z,69.05
2017-08-11T06:21:28.539Z,69.43
2017-08-11T06:22:37.390Z,69.63
2017-08-11T06:23:46.561Z,69.34
2017-08-11T06:24:55.414Z,69.24
2017-08-11T06:26:04.590Z,69.43
2017-08-11T06:27:13.453Z,69.53
2017-08-11T06:28:22.308Z,69.63
2017-08-11T06:29:31.157Z,69.73
2017-08-11T06:30:40.006Z,69.53
2017-08-11T06:31:49.176Z,69.73
2017-08-11T06:32:58.027Z,69.53
2017-08-11T06:34:07.201Z,69.53
2017-08-11T06:35:16.048Z,69.82
2017-08-11T06:36:24.906Z,69.73
2017-08-11T06:37:33.751Z,69.34
2017-08-11T06:38:42.610Z,69.53
2017-08-11T06:39:51.460Z,69.73
2017-08-11T06:41:00.310Z,69.82
2017-08-11T06:42:09.161Z,69.92
2017-08-11T06:43:18.014Z,69.73
2017-08-11T06:44:26.867Z,69.63
2017-08-11T06:45:35.724Z,69.63
2017-08-11T06:46:44.576Z,69.73
2017-08-11T06:47:53.426Z,69.82
2017-08-11T06:49:02.273Z,69.92
2017-08-11T06:50:11.131Z,70.01
2017-08-11T06:51:20.302Z,69.63
2017-08-11T06:52:29.160Z,70.01
2017-08-11T06:53:38.011Z,69.92
2017-08-11T06:54:46.860Z,69.73
2017-08-11T06:55:56.030Z,69.63
2017-08-11T06:57:04.879Z,69.92
2017-08-11T06:58:13.731Z,69.82
2017-08-11T06:59:22.584Z,69.63
2017-08-11T07:00:31.431Z,69.63
2017-08-11T07:01:40.291Z,70.01
2017-08-11T07:02:49.138Z,70.01
2017-08-11T07:03:58.312Z,69.73
2017-08-11T07:05:07.171Z,69.63
2017-08-11T07:06:16.028Z,69.82
2017-08-11T07:07:24.886Z,69.73
2017-08-11T07:08:33.736Z,69.73
2017-08-11T07:09:42.601Z,69.92
2017-08-11T07:10:51.443Z,70.11
2017-08-11T07:12:00.611Z,69.92
2017-08-11T07:13:09.461Z,69.82
2017-08-11T07:14:18.322Z,70.01
2017-08-11T07:15:27.179Z,70.4
2017-08-11T07:16:36.035Z,70.5
2017-08-11T07:17:44.885Z,70.79
2017-08-11T07:18:53.745Z,70.79
2017-08-11T07:20:02.603Z,70.5
2017-08-11T07:21:11.465Z,70.5
2017-08-11T07:22:20.322Z,70.7
2017-08-11T07:23:29.168Z,70.79
2017-08-11T07:24:38.023Z,70.98
2017-08-11T07:25:46.879Z,71.28
2017-08-11T07:26:55.731Z,70.98
2017-08-11T07:28:04.580Z,70.98
2017-08-11T07:29:13.441Z,70.79
2017-08-11T07:30:22.299Z,70.92
2017-08-11T07:31:31.467Z,71.18
2017-08-11T07:32:40.316Z,71.18
2017-08-11T07:33:49.167Z,71.28
2017-08-11T07:34:58.019Z,71.28
2017-08-11T07:36:07.184Z,71.31
2017-08-11T07:37:16.032Z,71.31
2017-08-11T07:38:25.202Z,71.02
2017-08-11T07:39:34.057Z,71.22
2017-08-11T07:40:42.903Z,71.95
2017-08-11T07:41:51.755Z,71.7
2017-08-11T07:43:00.608Z,71.66
2017-08-11T07:44:09.786Z,71.7
2017-08-11T07:45:18.634Z,71.66
2017-08-11T07:46:27.484Z,71.6
2017-08-11T07:47:36.337Z,71.8
2017-08-11T07:48:45.189Z,71.6
2017-08-11T07:49:54.036Z,71.6
2017-08-11T07:51:02.896Z,71.89
2017-08-11T07:52:11.749Z,71.6
2017-08-11T07:53:20.611Z,71.6
2017-08-11T07:54:29.462Z,71.8
2017-08-11T07:55:38.318Z,71.7
2017-08-11T07:56:47.165Z,71.99
2017-08-11T07:57:56.018Z,71.7
2017-08-11T07:59:04.866Z,72.38
2017-08-11T08:00:13.713Z,72.28
2017-08-11T08:01:22.567Z,72.77
2017-08-11T08:02:31.419Z,72.28
2017-08-11T08:03:40.268Z,72.77
2017-08-11T08:04:49.119Z,72.57
2017-08-11T08:05:57.973Z,72.96
2017-08-11T08:07:07.453Z,72.47
2017-08-11T08:08:16.309Z,72.47
2017-08-11T08:09:25.161Z,72.67
2017-08-11T08:10:34.019Z,72.47
2017-08-11T08:11:42.871Z,72.57
2017-08-11T08:12:51.722Z,72.77
2017-08-11T08:14:00.573Z,72.96
2017-08-11T08:15:09.425Z,72.57
2017-08-11T08:16:18.271Z,73.05
2017-08-11T08:17:27.123Z,73.15
2017-08-11T08:18:35.981Z,73.35
2017-08-11T08:19:44.830Z,73.35
2017-08-11T08:20:53.680Z,73.35
2017-08-11T08:22:02.533Z,73.35
2017-08-11T08:23:11.389Z,73.25
2017-08-11T08:24:20.549Z,73.35
2017-08-11T08:25:29.401Z,73.44
2017-08-11T08:26:38.250Z,73.35
2017-08-11T08:27:47.105Z,73.35
2017-08-11T08:28:55.964Z,73.54
2017-08-11T08:30:05.136Z,73.64
2017-08-11T08:31:13.995Z,73.35
2017-08-11T08:32:23.159Z,73.73
2017-08-11T08:33:32.013Z,73.64
2017-08-11T08:34:40.858Z,73.83
2017-08-11T08:35:49.711Z,73.83
2017-08-11T08:36:58.568Z,73.83
2017-08-11T08:38:07.414Z,73.73
2017-08-11T08:39:16.265Z,73.54
2017-08-11T08:40:25.121Z,73.44
2017-08-11T08:41:33.975Z,74.02
2017-08-11T08:42:42.828Z,73.93
2017-08-11T08:43:51.677Z,74.12
2017-08-11T08:45:00.847Z,74.02
2017-08-11T08:46:10.008Z,74.12
2017-08-11T08:47:18.876Z,74.22
2017-08-11T08:48:27.724Z,74.02
2017-08-11T08:49:36.575Z,73.83
2017-08-11T08:50:45.739Z,73.93
2017-08-11T08:51:54.599Z,74.02
2017-08-11T08:53:03.471Z,74.02
2017-08-11T08:54:12.317Z,74.02
2017-08-11T08:55:21.163Z,73.93
2017-08-11T08:56:30.328Z,73.83
2017-08-11T08:57:39.179Z,74.02
2017-08-11T08:58:48.023Z,73.83
2017-08-11T08:59:56.874Z,74.12
2017-08-11T09:01:05.727Z,73.93
2017-08-11T09:02:14.577Z,73.83
2017-08-11T09:03:23.429Z,73.93
2017-08-11T09:04:32.284Z,73.73
2017-08-11T09:05:41.132Z,73.44
2017-08-11T09:06:50.010Z,73.83
2017-08-11T09:07:58.872Z,73.93
2017-08-11T09:09:08.033Z,73.69
2017-08-11T09:10:16.888Z,73.5
2017-08-11T09:11:25.741Z,74.02
2017-08-11T09:12:34.596Z,73.83
2017-08-11T09:13:43.446Z,73.54
2017-08-11T09:14:52.329Z,74.12
2017-08-11T09:16:01.173Z,74.02
2017-08-11T09:17:10.027Z,73.64
2017-08-11T09:18:18.875Z,73.93
2017-08-11T09:19:27.738Z,73.99
2017-08-11T09:20:36.593Z,73.73
2017-08-11T09:21:45.444Z,74.02
2017-08-11T09:22:54.298Z,73.69
2017-08-11T09:24:03.151Z,74.12
2017-08-11T09:25:12.005Z,73.99
2017-08-11T09:26:20.850Z,73.93
2017-08-11T09:27:29.698Z,73.83
2017-08-11T09:28:38.547Z,73.54
2017-08-11T09:29:47.403Z,73.93
2017-08-11T09:30:56.258Z,73.73
2017-08-11T09:32:05.100Z,73.89
2017-08-11T09:33:13.975Z,73.99
2017-08-11T09:34:22.839Z,73.93
2017-08-11T09:35:31.694Z,73.69
2017-08-11T09:36:40.548Z,73.89
2017-08-11T09:37:49.403Z,73.99
2017-08-11T09:38:58.587Z,73.73
2017-08-11T09:40:07.436Z,73.83
2017-08-11T09:41:16.288Z,74.08
2017-08-11T09:42:25.782Z,73.5
2017-08-11T09:43:34.632Z,74.22
2017-08-11T09:44:43.485Z,73.31
2017-08-11T09:45:52.653Z,74.08
2017-08-11T09:47:01.504Z,73.69
2017-08-11T09:48:10.354Z,73.6
2017-08-11T09:49:19.213Z,74.08
2017-08-11T09:50:28.055Z,73.99
2017-08-11T09:51:36.910Z,73.5
2017-08-11T09:52:45.760Z,73.89
2017-08-11T09:53:54.624Z,73.79
2017-08-11T09:55:03.478Z,73.99
2017-08-11T09:56:12.325Z,73.89
2017-08-11T09:57:21.173Z,73.99
2017-08-11T09:58:30.026Z,73.89
2017-08-11T09:59:38.883Z,73.99
2017-08-11T10:00:47.732Z,73.79
2017-08-11T10:01:56.578Z,73.69
2017-08-11T10:03:05.434Z,73.89
2017-08-11T10:04:14.600Z,74.22
2017-08-11T10:05:23.479Z,73.69
2017-08-11T10:06:32.333Z,73.89
2017-08-11T10:07:41.176Z,73.89
2017-08-11T10:08:50.341Z,73.69
2017-08-11T10:09:59.190Z,73.69
2017-08-11T10:11:08.037Z,74.22
2017-08-11T10:12:16.890Z,73.6
2017-08-11T10:13:25.742Z,73.89
2017-08-11T10:14:34.598Z,73.99
2017-08-11T10:15:43.453Z,74.18
2017-08-11T10:16:52.314Z,74.02
2017-08-11T10:18:01.159Z,74.12
2017-08-11T10:19:10.016Z,74.18
2017-08-11T10:20:18.870Z,73.69
2017-08-11T10:21:27.710Z,73.69
2017-08-11T10:22:36.874Z,73.69
2017-08-11T10:23:45.724Z,73.69
2017-08-11T10:24:54.594Z,73.73
2017-08-11T10:26:03.446Z,73.69
2017-08-11T10:27:12.297Z,73.79
2017-08-11T10:28:21.462Z,73.5
2017-08-11T10:29:30.308Z,73.69
2017-08-11T10:30:39.165Z,73.69
2017-08-11T10:31:48.012Z,73.6
2017-08-11T10:32:56.863Z,73.5
2017-08-11T10:34:05.715Z,73.31
2017-08-11T10:35:14.884Z,73.6
2017-08-11T10:36:23.732Z,73.6
2017-08-11T10:37:32.586Z,73.41
2017-08-11T10:38:41.431Z,73.6
2017-08-11T10:39:50.282Z,73.5
2017-08-11T10:40:59.136Z,73.6
2017-08-11T10:42:07.994Z,73.31
2017-08-11T10:43:16.844Z,73.11
2017-08-11T10:44:25.714Z,73.31
2017-08-11T10:45:34.562Z,73.31
2017-08-11T10:46:43.421Z,73.31
2017-08-11T10:47:52.275Z,73.41
2017-08-11T10:49:01.125Z,73.11
2017-08-11T10:50:09.976Z,72.92
2017-08-11T10:51:18.835Z,73.02
2017-08-11T10:52:27.684Z,73.11
2017-08-11T10:53:36.535Z,73.02
2017-08-11T10:54:45.389Z,72.73
2017-08-11T10:55:54.240Z,73.02
2017-08-11T10:57:03.092Z,72.83
2017-08-11T10:58:11.945Z,72.57
2017-08-11T10:59:20.790Z,73.02
2017-08-11T11:00:29.963Z,73.02
2017-08-11T11:01:39.126Z,72.53
2017-08-11T11:02:47.984Z,72.63
2017-08-11T11:03:56.862Z,72.63
2017-08-11T11:05:05.713Z,72.53
2017-08-11T11:06:14.567Z,72.83
2017-08-11T11:07:23.420Z,72.63
2017-08-11T11:08:32.271Z,72.83
2017-08-11T11:09:41.117Z,72.83
2017-08-11T11:10:49.965Z,72.53
2017-08-11T11:11:58.826Z,73.02
2017-08-11T11:13:07.678Z,72.83
2017-08-11T11:14:16.534Z,72.83
2017-08-11T11:15:25.383Z,72.44
2017-08-11T11:16:34.235Z,72.67
2017-08-11T11:17:43.081Z,72.57
2017-08-11T11:18:51.930Z,72.28
2017-08-11T11:20:01.415Z,72.73
2017-08-11T11:21:10.263Z,72.28
2017-08-11T11:22:19.111Z,72.53
2017-08-11T11:23:27.961Z,72.47
2017-08-11T11:24:36.818Z,72.34
2017-08-11T11:25:45.664Z,72.44
2017-08-11T11:26:54.509Z,72.44
2017-08-11T11:28:03.361Z,72.44
2017-08-11T11:29:12.211Z,72.47
2017-08-11T11:30:21.055Z,72.44
2017-08-11T11:31:29.915Z,72.63
2017-08-11T11:32:39.080Z,72.44
2017-08-11T11:33:47.926Z,72.44
2017-08-11T11:34:56.783Z,72.63
2017-08-11T11:36:05.636Z,72.44
2017-08-11T11:37:14.482Z,72.53
2017-08-11T11:38:23.330Z,72.57
2017-08-11T11:39:32.174Z,72.63
2017-08-11T11:40:41.029Z,72.67
2017-08-11T11:41:50.230Z,72.44
2017-08-11T11:42:59.398Z,72.63
2017-08-11T11:44:08.567Z,72.44
2017-08-11T11:45:17.429Z,72.44
2017-08-11T11:46:26.271Z,73.02
2017-08-11T11:47:35.131Z,72.63
2017-08-11T11:48:43.983Z,72.44
2017-08-11T11:49:52.832Z,72.44
2017-08-11T11:51:01.681Z,72.73
2017-08-11T11:52:10.533Z,72.67
2017-08-11T11:53:19.391Z,72.83
2017-08-11T11:54:28.241Z,72.57
2017-08-11T11:55:37.092Z,72.57
2017-08-11T11:56:45.943Z,72.83
2017-08-11T11:57:54.791Z,72.83
2017-08-11T11:59:03.682Z,72.83
2017-08-11T12:00:12.539Z,72.53
2017-08-11T12:01:21.398Z,72.83
2017-08-11T12:02:30.246Z,72.73
2017-08-11T12:03:39.108Z,72.96
2017-08-11T12:04:47.959Z,72.44
2017-08-11T12:05:57.119Z,72.44
2017-08-11T12:07:05.966Z,72.63
2017-08-11T12:08:14.819Z,72.53
2017-08-11T12:09:23.679Z,72.63
2017-08-11T12:10:32.525Z,72.53
2017-08-11T12:11:41.371Z,73.21
2017-08-11T12:12:50.219Z,72.63
2017-08-11T12:13:59.075Z,73.31
2017-08-11T12:15:07.924Z,72.92
2017-08-11T12:16:16.778Z,73.11
2017-08-11T12:17:25.630Z,73.11
2017-08-11T12:18:34.800Z,73.31
2017-08-11T12:19:43.653Z,73.5
2017-08-11T12:20:52.520Z,73.31
2017-08-11T12:22:01.372Z,73.41
2017-08-11T12:23:10.220Z,73.02
2017-08-11T12:24:19.077Z,73.15
2017-08-11T12:25:27.922Z,72.73
2017-08-11T12:26:36.776Z,72.53
2017-08-11T12:27:45.626Z,73.02
2017-08-11T12:28:54.470Z,73.05
2017-08-11T12:30:03.352Z,72.63
2017-08-11T12:31:12.202Z,72.53
2017-08-11T12:32:21.055Z,72.44
2017-08-11T12:33:29.907Z,72.92
2017-08-11T12:34:39.067Z,72.73
2017-08-11T12:35:47.916Z,73.02
2017-08-11T12:36:56.767Z,72.53
2017-08-11T12:38:05.626Z,72.83
2017-08-11T12:39:14.473Z,73.5
2017-08-11T12:40:23.326Z,73.5
2017-08-11T12:41:32.181Z,73.21
2017-08-11T12:42:41.352Z,73.31
2017-08-11T12:43:50.204Z,73.31
2017-08-11T12:44:59.054Z,73.21
2017-08-11T12:46:07.906Z,73.21
2017-08-11T12:47:16.756Z,73.31
2017-08-11T12:48:25.614Z,73.5
2017-08-11T12:49:34.467Z,73.6
2017-08-11T12:50:43.646Z,73.11
2017-08-11T12:51:53.131Z,73.02
2017-08-11T12:53:01.978Z,73.11
2017-08-11T12:54:10.832Z,73.25
2017-08-11T12:55:20.005Z,73.31
2017-08-11T12:56:28.857Z,72.92
2017-08-11T12:57:37.702Z,73.41
2017-08-11T12:58:46.556Z,73.02
2017-08-11T12:59:55.727Z,73.21
2017-08-11T13:01:04.895Z,72.83
2017-08-11T13:02:13.745Z,73.11
2017-08-11T13:03:22.598Z,72.63
2017-08-11T13:04:31.452Z,72.47
2017-08-11T13:05:40.301Z,72.57
2017-08-11T13:06:49.153Z,72.83
2017-08-11T13:07:58.385Z,72.96
2017-08-11T13:09:07.245Z,72.86
2017-08-11T13:10:16.093Z,72.86
2017-08-11T13:11:24.952Z,72.96
2017-08-11T13:12:33.798Z,72.83
2017-08-11T13:13:42.656Z,72.96
2017-08-11T13:14:51.508Z,72.67
2017-08-11T13:16:00.355Z,72.28
2017-08-11T13:17:09.204Z,72.86
2017-08-11T13:18:18.053Z,72.38
2017-08-11T13:19:26.905Z,72.47
2017-08-11T13:20:35.756Z,72.47
2017-08-11T13:21:44.610Z,72.67
2017-08-11T13:22:53.467Z,72.47
2017-08-11T13:24:02.661Z,72.47
2017-08-11T13:25:11.515Z,72.47
2017-08-11T13:26:20.691Z,72.09
2017-08-11T13:27:29.540Z,72.09
2017-08-11T13:28:38.390Z,72.47
2017-08-11T13:29:47.566Z,72.86
2017-08-11T13:30:56.423Z,72.86
2017-08-11T13:32:05.589Z,73.05
2017-08-11T13:33:14.762Z,72.77
2017-08-11T13:34:23.610Z,72.86
2017-08-11T13:35:32.461Z,72.28
2017-08-11T13:36:41.305Z,72.09
2017-08-11T13:37:50.167Z,72.47
2017-08-11T13:38:59.019Z,72.57
2017-08-11T13:40:07.876Z,72.38
2017-08-11T13:41:16.727Z,72.38
2017-08-11T13:42:25.578Z,71.99
2017-08-11T13:43:34.436Z,72.38
2017-08-11T13:44:43.600Z,72.12
2017-08-11T13:45:52.452Z,72.18
2017-08-11T13:47:01.306Z,72.28
2017-08-11T13:48:10.157Z,72.47
2017-08-11T13:49:19.329Z,72.18
2017-08-11T13:50:28.176Z,72.57
2017-08-11T13:51:37.028Z,72.47
2017-08-11T13:52:45.874Z,72.18
2017-08-11T13:53:54.731Z,72.38
2017-08-11T13:55:03.580Z,72.28
2017-08-11T13:56:12.435Z,72.28
2017-08-11T13:57:21.280Z,72.38
2017-08-11T13:58:30.134Z,72.22
2017-08-11T13:59:38.986Z,72.28
2017-08-11T14:00:47.841Z,71.89
2017-08-11T14:01:56.696Z,72.28
2017-08-11T14:03:05.544Z,71.99
2017-08-11T14:04:14.400Z,71.83
2017-08-11T14:05:23.248Z,72.22
2017-08-11T14:06:32.099Z,71.64
2017-08-11T14:07:40.950Z,71.7
2017-08-11T14:08:49.802Z,72.18
2017-08-11T14:09:58.651Z,72.18
2017-08-11T14:11:07.508Z,72.18
2017-08-11T14:12:16.355Z,72.18
2017-08-11T14:13:25.208Z,72.18
2017-08-11T14:14:34.057Z,72.12
2017-08-11T14:15:42.908Z,72.22
2017-08-11T14:16:52.077Z,72.18
2017-08-11T14:18:00.932Z,72.28
2017-08-11T14:19:09.776Z,72.09
2017-08-11T14:20:18.629Z,72.18
2017-08-11T14:21:27.782Z,71.7
2017-08-11T14:22:36.634Z,71.93
2017-08-11T14:23:45.482Z,72.09
2017-08-11T14:24:54.337Z,72.38
2017-08-11T14:26:03.184Z,72.38
2017-08-11T14:27:12.042Z,71.99
2017-08-11T14:28:20.892Z,71.99
2017-08-11T14:29:29.740Z,71.99
2017-08-11T14:30:38.593Z,72.09
2017-08-11T14:31:47.446Z,72.22
2017-08-11T14:32:56.621Z,72.12
2017-08-11T14:34:05.473Z,72.22
2017-08-11T14:35:14.636Z,72.02
2017-08-11T14:36:23.488Z,72.18
2017-08-11T14:37:32.339Z,72.22
2017-08-11T14:38:41.191Z,72.12
2017-08-11T14:39:50.045Z,71.99
2017-08-11T14:40:58.896Z,72.41
2017-08-11T14:42:07.752Z,72.31
2017-08-11T14:43:16.604Z,71.89
2017-08-11T14:44:25.768Z,72.22
2017-08-11T14:45:34.617Z,72.47
2017-08-11T14:46:43.476Z,71.99
2017-08-11T14:47:52.648Z,72.18
2017-08-11T14:49:01.824Z,72.18
2017-08-11T14:50:10.672Z,72.51